Terminal Aerodrome Forecast
Issued by NWS

Home | Current Version | Previous Version | Text Only | Print | Product List | Glossary On
Versions: 1 2 3 4 5 6 7 8 9 10 11 12 13 14 15 16 17 18 19 20 21 22 23 24 25 26 27 28 29
000
FTUS43 KDLH 042338
TAFHIB
TAF
KHIB 042338Z 0500/0524 14010KT P6SM SCT040 BKN070
     FM050300 14008KT P6SM VCTS OVC040CB
     FM050600 14003KT 4SM BR VCSH FEW002 SCT035
      TEMPO 0509/0512 1/2SM FG OVC002
     FM051500 16010KT P6SM BKN100
     FM051900 18010G17KT P6SM VCSH BKN050=

USA.gov is the U.S. government's official web portal to all federal, state and local government web resources and services.